Terminal Aerodrome Forecast
Issued by NWS

Home | Current Version | Previous Version | Graphics & Text | Print | Product List | Glossary Off
Versions: 1 2 3 4 5 6 7 8 9 10 11 12 13 14

000
FTUS43 KMPX 231100
TAFAXN
TAF
KAXN 231129Z 2312/2412 13012G21KT P6SM VCSH SCT030 OVC060
     FM231300 13015G25KT 6SM -RA SCT030 OVC050
     FM231900 13022G30KT 4SM -RA BR SCT020 OVC040
     FM240000 13015G22KT 4SM -RA BR SCT012 OVC020
      TEMPO 2402/2405 2SM -RA BR BKN007 OVC015
     FM240700 12010KT 2SM -RA BR BKN007 OVC015=

USA.gov is the U.S. government's official web portal to all federal, state and local government web resources and services.